Terminal Aerodrome Forecast
Issued by NWS

Home | Current Version | Previous Version | Text Only | Print | Product List | Glossary On
Versions: 1 2 3 4 5 6 7 8 9 10 11 12 13 14 15 16 17
000
FTUS46 KSEW 242102 AAA
TAFHQM
TAF AMD
KHQM 242102Z 2421/2518 25014KT P6SM SCT025 BKN045
      TEMPO 2421/2424 BKN025 OVC045
     FM250100 27010KT P6SM SCT050
     FM250300 29006KT P6SM SCT030
     FM250600 VRB03KT P6SM OVC025=

USA.gov is the U.S. government's official web portal to all federal, state and local government web resources and services.